sensor_id;sensor_type;location;lat;lon;timestamp;pressure;altitude;pressure_sealevel;temperature;humidity
56689;BME280;42565;53.342;-1.534;2023-02-08T00:00:26;100962.39;;;8.82;54.47
56689;BME280;42565;53.342;-1.534;2023-02-08T00:02:52;100960.71;;;9.12;53.98
56689;BME280;42565;53.342;-1.534;2023-02-08T00:05:20;100956.28;;;8.95;53.88
56689;BME280;42565;53.342;-1.534;2023-02-08T00:07:47;100952.81;;;9.02;53.68
56689;BME280;42565;53.342;-1.534;2023-02-08T00:10:14;100950.37;;;9.58;52.07
56689;BME280;42565;53.342;-1.534;2023-02-08T00:12:42;100949.46;;;9.97;51.85
56689;BME280;42565;53.342;-1.534;2023-02-08T00:15:09;100950.54;;;9.51;51.52
56689;BME280;42565;53.342;-1.534;2023-02-08T00:17:37;100949.48;;;9.26;51.45
56689;BME280;42565;53.342;-1.534;2023-02-08T00:20:04;100945.79;;;9.46;51.70
56689;BME280;42565;53.342;-1.534;2023-02-08T00:22:31;100946.89;;;9.05;52.13
56689;BME280;42565;53.342;-1.534;2023-02-08T00:24:58;100947.33;;;9.56;51.73
56689;BME280;42565;53.342;-1.534;2023-02-08T00:27:26;100952.79;;;9.39;52.09
56689;BME280;42565;53.342;-1.534;2023-02-08T00:29:53;100954.30;;;9.60;51.50
56689;BME280;42565;53.342;-1.534;2023-02-08T00:32:20;100950.98;;;9.83;51.08
56689;BME280;42565;53.342;-1.534;2023-02-08T00:34:47;100948.03;;;9.90;50.72
56689;BME280;42565;53.342;-1.534;2023-02-08T00:37:14;100947.48;;;9.68;51.54
56689;BME280;42565;53.342;-1.534;2023-02-08T00:39:40;100940.14;;;9.47;51.66
56689;BME280;42565;53.342;-1.534;2023-02-08T00:42:08;100934.16;;;9.71;51.66
56689;BME280;42565;53.342;-1.534;2023-02-08T00:44:35;100931.78;;;9.14;52.05
56689;BME280;42565;53.342;-1.534;2023-02-08T00:47:02;100928.83;;;9.34;52.11
56689;BME280;42565;53.342;-1.534;2023-02-08T00:49:30;100925.06;;;9.45;52.40
56689;BME280;42565;53.342;-1.534;2023-02-08T00:51:57;100921.73;;;9.37;52.39
56689;BME280;42565;53.342;-1.534;2023-02-08T00:54:23;100922.28;;;9.57;51.71
56689;BME280;42565;53.342;-1.534;2023-02-08T00:56:50;100920.95;;;9.44;52.31
56689;BME280;42565;53.342;-1.534;2023-02-08T00:59:18;100922.98;;;9.49;52.22
56689;BME280;42565;53.342;-1.534;2023-02-08T01:01:45;100925.76;;;9.59;51.75
56689;BME280;42565;53.342;-1.534;2023-02-08T01:04:11;100928.19;;;8.93;52.75
56689;BME280;42565;53.342;-1.534;2023-02-08T01:06:39;100929.10;;;8.55;53.77
56689;BME280;42565;53.342;-1.534;2023-02-08T01:09:06;100923.48;;;8.45;53.96
56689;BME280;42565;53.342;-1.534;2023-02-08T01:11:33;100922.39;;;8.08;55.52
56689;BME280;42565;53.342;-1.534;2023-02-08T01:14:00;100918.64;;;7.88;56.24
56689;BME280;42565;53.342;-1.534;2023-02-08T01:16:29;100916.27;;;7.98;56.32
56689;BME280;42565;53.342;-1.534;2023-02-08T01:18:58;100913.30;;;8.44;55.18
56689;BME280;42565;53.342;-1.534;2023-02-08T01:21:27;100909.05;;;8.69;54.37
56689;BME280;42565;53.342;-1.534;2023-02-08T01:23:54;100908.07;;;8.53;54.62
56689;BME280;42565;53.342;-1.534;2023-02-08T01:26:23;100907.67;;;8.74;53.78
56689;BME280;42565;53.342;-1.534;2023-02-08T01:28:51;100902.22;;;8.80;54.68
56689;BME280;42565;53.342;-1.534;2023-02-08T01:31:20;100901.92;;;8.66;54.15
56689;BME280;42565;53.342;-1.534;2023-02-08T01:33:48;100903.05;;;8.68;54.63
56689;BME280;42565;53.342;-1.534;2023-02-08T01:36:15;100908.77;;;8.38;54.50
56689;BME280;42565;53.342;-1.534;2023-02-08T01:38:44;100903.92;;;9.08;53.90
56689;BME280;42565;53.342;-1.534;2023-02-08T01:41:14;100903.09;;;8.87;53.75
56689;BME280;42565;53.342;-1.534;2023-02-08T01:44:01;100900.55;;;8.45;54.85
56689;BME280;42565;53.342;-1.534;2023-02-08T01:46:30;100900.04;;;8.84;54.50
56689;BME280;42565;53.342;-1.534;2023-02-08T01:49:01;100896.86;;;8.86;54.78
56689;BME280;42565;53.342;-1.534;2023-02-08T01:51:31;100895.44;;;9.05;53.81
56689;BME280;42565;53.342;-1.534;2023-02-08T01:54:02;100886.67;;;9.18;53.80
56689;BME280;42565;53.342;-1.534;2023-02-08T01:56:33;100884.55;;;8.92;53.68
56689;BME280;42565;53.342;-1.534;2023-02-08T01:59:04;100884.03;;;9.12;53.36
56689;BME280;42565;53.342;-1.534;2023-02-08T02:01:33;100880.44;;;9.46;52.55
56689;BME280;42565;53.342;-1.534;2023-02-08T02:04:02;100879.99;;;9.53;52.36
56689;BME280;42565;53.342;-1.534;2023-02-08T02:06:33;100872.36;;;9.37;52.17
56689;BME280;42565;53.342;-1.534;2023-02-08T02:09:08;100873.11;;;9.49;52.27
56689;BME280;42565;53.342;-1.534;2023-02-08T02:11:36;100871.62;;;9.49;52.04
56689;BME280;42565;53.342;-1.534;2023-02-08T02:14:04;100872.33;;;9.40;52.35
56689;BME280;42565;53.342;-1.534;2023-02-08T02:16:32;100874.68;;;9.48;52.77
56689;BME280;42565;53.342;-1.534;2023-02-08T02:18:59;100877.85;;;9.13;53.19
56689;BME280;42565;53.342;-1.534;2023-02-08T02:21:41;100869.07;;;9.01;53.57
56689;BME280;42565;53.342;-1.534;2023-02-08T02:24:36;100864.41;;;9.18;53.30
56689;BME280;42565;53.342;-1.534;2023-02-08T02:27:25;100862.91;;;9.22;52.98
56689;BME280;42565;53.342;-1.534;2023-02-08T02:30:32;100863.55;;;9.11;53.21
56689;BME280;42565;53.342;-1.534;2023-02-08T02:33:12;100865.02;;;9.35;53.15
56689;BME280;42565;53.342;-1.534;2023-02-08T02:35:47;100858.70;;;9.20;53.13
56689;BME280;42565;53.342;-1.534;2023-02-08T02:38:25;100857.67;;;9.30;52.94
56689;BME280;42565;53.342;-1.534;2023-02-08T02:41:07;100856.39;;;9.67;52.75
56689;BME280;42565;53.342;-1.534;2023-02-08T02:43:43;100858.20;;;9.31;52.85
56689;BME280;42565;53.342;-1.534;2023-02-08T02:46:21;100857.07;;;9.10;53.61
56689;BME280;42565;53.342;-1.534;2023-02-08T02:48:55;100854.27;;;8.92;54.08
56689;BME280;42565;53.342;-1.534;2023-02-08T02:51:29;100853.68;;;8.63;54.87
56689;BME280;42565;53.342;-1.534;2023-02-08T02:54:02;100853.61;;;8.70;55.22
56689;BME280;42565;53.342;-1.534;2023-02-08T02:56:33;100848.68;;;9.24;54.38
56689;BME280;42565;53.342;-1.534;2023-02-08T02:59:05;100846.00;;;9.07;54.82
56689;BME280;42565;53.342;-1.534;2023-02-08T03:01:33;100846.49;;;8.78;55.27
56689;BME280;42565;53.342;-1.534;2023-02-08T03:04:11;100850.23;;;8.69;55.93
56689;BME280;42565;53.342;-1.534;2023-02-08T03:06:48;100852.93;;;8.38;56.86
56689;BME280;42565;53.342;-1.534;2023-02-08T03:09:34;100846.97;;;8.71;55.59
56689;BME280;42565;53.342;-1.534;2023-02-08T03:12:14;100841.62;;;9.10;54.91
56689;BME280;42565;53.342;-1.534;2023-02-08T03:14:49;100836.47;;;9.18;54.34
56689;BME280;42565;53.342;-1.534;2023-02-08T03:17:33;100834.95;;;8.98;54.38
56689;BME280;42565;53.342;-1.534;2023-02-08T03:20:06;100834.65;;;8.79;54.58
56689;BME280;42565;53.342;-1.534;2023-02-08T03:22:42;100834.07;;;9.14;54.31
56689;BME280;42565;53.342;-1.534;2023-02-08T03:25:15;100831.24;;;9.07;54.24
56689;BME280;42565;53.342;-1.534;2023-02-08T03:27:50;100832.15;;;9.17;53.84
56689;BME280;42565;53.342;-1.534;2023-02-08T03:30:23;100829.21;;;9.13;54.13
56689;BME280;42565;53.342;-1.534;2023-02-08T03:32:57;100824.39;;;9.46;53.90
56689;BME280;42565;53.342;-1.534;2023-02-08T03:35:32;100820.94;;;9.04;53.66
56689;BME280;42565;53.342;-1.534;2023-02-08T03:38:03;100821.09;;;8.66;54.74
56689;BME280;42565;53.342;-1.534;2023-02-08T03:40:34;100819.23;;;8.07;56.23
56689;BME280;42565;53.342;-1.534;2023-02-08T03:43:08;100816.59;;;7.37;57.69
56689;BME280;42565;53.342;-1.534;2023-02-08T03:45:41;100819.58;;;7.18;58.69
56689;BME280;42565;53.342;-1.534;2023-02-08T03:48:10;100819.34;;;7.29;58.78
56689;BME280;42565;53.342;-1.534;2023-02-08T03:50:39;100819.24;;;7.06;58.92
56689;BME280;42565;53.342;-1.534;2023-02-08T03:53:10;100819.13;;;8.04;57.37
56689;BME280;42565;53.342;-1.534;2023-02-08T03:55:38;100819.39;;;7.74;56.83
56689;BME280;42565;53.342;-1.534;2023-02-08T03:58:10;100818.43;;;7.56;56.78
56689;BME280;42565;53.342;-1.534;2023-02-08T04:00:45;100825.33;;;7.67;57.26
56689;BME280;42565;53.342;-1.534;2023-02-08T04:03:17;100821.92;;;7.30;57.22
56689;BME280;42565;53.342;-1.534;2023-02-08T04:05:45;100810.08;;;7.14;58.43
56689;BME280;42565;53.342;-1.534;2023-02-08T04:08:12;100805.18;;;6.97;58.78
56689;BME280;42565;53.342;-1.534;2023-02-08T04:10:40;100798.02;;;6.77;59.09
56689;BME280;42565;53.342;-1.534;2023-02-08T04:13:07;100790.80;;;7.07;58.51
56689;BME280;42565;53.342;-1.534;2023-02-08T04:15:34;100784.89;;;7.42;58.22
56689;BME280;42565;53.342;-1.534;2023-02-08T04:18:01;100783.29;;;6.81;58.87
56689;BME280;42565;53.342;-1.534;2023-02-08T04:20:28;100779.63;;;7.42;58.22
56689;BME280;42565;53.342;-1.534;2023-02-08T04:22:55;100782.00;;;7.25;58.50
56689;BME280;42565;53.342;-1.534;2023-02-08T04:25:22;100773.12;;;7.05;57.95
56689;BME280;42565;53.342;-1.534;2023-02-08T04:27:50;100770.07;;;7.62;57.23
56689;BME280;42565;53.342;-1.534;2023-02-08T04:30:17;100768.22;;;7.64;57.42
56689;BME280;42565;53.342;-1.534;2023-02-08T04:32:44;100763.09;;;7.23;58.60
56689;BME280;42565;53.342;-1.534;2023-02-08T04:35:11;100759.49;;;7.14;58.25
56689;BME280;42565;53.342;-1.534;2023-02-08T04:37:38;100750.89;;;7.01;58.43
56689;BME280;42565;53.342;-1.534;2023-02-08T04:40:06;100749.90;;;6.63;59.52
56689;BME280;42565;53.342;-1.534;2023-02-08T04:42:33;100746.26;;;6.88;59.24
56689;BME280;42565;53.342;-1.534;2023-02-08T04:45:01;100739.50;;;7.37;57.60
56689;BME280;42565;53.342;-1.534;2023-02-08T04:47:28;100732.97;;;6.63;57.91
56689;BME280;42565;53.342;-1.534;2023-02-08T04:49:55;100733.19;;;6.17;60.11
56689;BME280;42565;53.342;-1.534;2023-02-08T04:52:22;100732.56;;;6.27;60.64
56689;BME280;42565;53.342;-1.534;2023-02-08T04:54:50;100734.33;;;5.32;62.29
56689;BME280;42565;53.342;-1.534;2023-02-08T04:57:17;100727.02;;;5.91;62.50
56689;BME280;42565;53.342;-1.534;2023-02-08T04:59:43;100723.97;;;5.56;63.32
56689;BME280;42565;53.342;-1.534;2023-02-08T05:02:10;100722.05;;;5.28;63.88
56689;BME280;42565;53.342;-1.534;2023-02-08T05:04:37;100713.31;;;5.61;63.89
56689;BME280;42565;53.342;-1.534;2023-02-08T05:07:04;100701.70;;;5.73;64.12
56689;BME280;42565;53.342;-1.534;2023-02-08T05:09:32;100701.83;;;5.83;62.70
56689;BME280;42565;53.342;-1.534;2023-02-08T05:11:59;100694.37;;;5.36;63.83
56689;BME280;42565;53.342;-1.534;2023-02-08T05:14:26;100690.33;;;5.29;64.54
56689;BME280;42565;53.342;-1.534;2023-02-08T05:16:53;100684.64;;;5.29;64.69
56689;BME280;42565;53.342;-1.534;2023-02-08T05:19:21;100683.21;;;5.27;64.98
56689;BME280;42565;53.342;-1.534;2023-02-08T05:21:48;100675.77;;;5.23;66.61
56689;BME280;42565;53.342;-1.534;2023-02-08T05:24:15;100670.58;;;5.08;66.49
56689;BME280;42565;53.342;-1.534;2023-02-08T05:26:43;100664.66;;;4.36;68.21
56689;BME280;42565;53.342;-1.534;2023-02-08T05:29:10;100661.59;;;4.65;67.79
56689;BME280;42565;53.342;-1.534;2023-02-08T05:31:37;100662.34;;;4.37;68.71
56689;BME280;42565;53.342;-1.534;2023-02-08T05:34:04;100662.82;;;4.33;68.34
56689;BME280;42565;53.342;-1.534;2023-02-08T05:36:32;100662.26;;;4.55;67.80
56689;BME280;42565;53.342;-1.534;2023-02-08T05:38:59;100660.45;;;4.90;65.63
56689;BME280;42565;53.342;-1.534;2023-02-08T05:41:25;100656.13;;;5.25;64.76
56689;BME280;42565;53.342;-1.534;2023-02-08T05:43:53;100659.39;;;5.98;63.89
56689;BME280;42565;53.342;-1.534;2023-02-08T05:46:20;100662.05;;;5.00;64.34
56689;BME280;42565;53.342;-1.534;2023-02-08T05:48:47;100663.46;;;4.55;65.80
56689;BME280;42565;53.342;-1.534;2023-02-08T05:51:14;100663.36;;;4.03;67.67
56689;BME280;42565;53.342;-1.534;2023-02-08T05:53:42;100660.65;;;4.56;66.92
56689;BME280;42565;53.342;-1.534;2023-02-08T05:56:10;100658.39;;;4.65;66.38
56689;BME280;42565;53.342;-1.534;2023-02-08T05:58:37;100660.22;;;4.89;65.62
56689;BME280;42565;53.342;-1.534;2023-02-08T06:01:07;100662.63;;;5.42;63.80
56689;BME280;42565;53.342;-1.534;2023-02-08T06:03:35;100659.31;;;4.61;64.27
56689;BME280;42565;53.342;-1.534;2023-02-08T06:06:03;100659.21;;;4.81;64.59
56689;BME280;42565;53.342;-1.534;2023-02-08T06:08:30;100653.87;;;4.33;66.16
56689;BME280;42565;53.342;-1.534;2023-02-08T06:10:57;100655.22;;;3.86;67.41
56689;BME280;42565;53.342;-1.534;2023-02-08T06:13:24;100659.58;;;3.38;70.10
56689;BME280;42565;53.342;-1.534;2023-02-08T06:15:51;100661.07;;;3.02;70.95
56689;BME280;42565;53.342;-1.534;2023-02-08T06:18:18;100664.19;;;2.65;71.49
56689;BME280;42565;53.342;-1.534;2023-02-08T06:20:45;100661.77;;;2.86;71.55
56689;BME280;42565;53.342;-1.534;2023-02-08T06:23:12;100666.76;;;2.77;72.34
56689;BME280;42565;53.342;-1.534;2023-02-08T06:25:40;100668.09;;;2.99;71.97
56689;BME280;42565;53.342;-1.534;2023-02-08T06:28:07;100670.75;;;3.56;70.53
56689;BME280;42565;53.342;-1.534;2023-02-08T06:30:34;100672.16;;;3.29;70.86
56689;BME280;42565;53.342;-1.534;2023-02-08T06:33:01;100670.44;;;4.39;67.62
56689;BME280;42565;53.342;-1.534;2023-02-08T06:35:27;100673.80;;;4.55;66.32
56689;BME280;42565;53.342;-1.534;2023-02-08T06:37:55;100682.82;;;4.95;64.69
56689;BME280;42565;53.342;-1.534;2023-02-08T06:40:22;100684.87;;;3.92;67.85
56689;BME280;42565;53.342;-1.534;2023-02-08T06:42:50;100680.60;;;3.86;67.62
56689;BME280;42565;53.342;-1.534;2023-02-08T06:45:17;100679.61;;;3.34;69.68
56689;BME280;42565;53.342;-1.534;2023-02-08T06:47:44;100681.77;;;3.55;69.42
56689;BME280;42565;53.342;-1.534;2023-02-08T06:50:11;100682.35;;;3.88;67.71
56689;BME280;42565;53.342;-1.534;2023-02-08T06:52:39;100687.38;;;3.97;66.81
56689;BME280;42565;53.342;-1.534;2023-02-08T06:55:06;100690.65;;;4.17;66.80
56689;BME280;42565;53.342;-1.534;2023-02-08T06:57:33;100693.68;;;4.03;66.71
56689;BME280;42565;53.342;-1.534;2023-02-08T07:00:01;100697.72;;;4.29;65.29
56689;BME280;42565;53.342;-1.534;2023-02-08T07:02:28;100700.43;;;4.53;64.57
56689;BME280;42565;53.342;-1.534;2023-02-08T07:04:55;100702.85;;;3.75;66.37
56689;BME280;42565;53.342;-1.534;2023-02-08T07:07:23;100706.18;;;3.35;67.88
56689;BME280;42565;53.342;-1.534;2023-02-08T07:09:50;100703.02;;;3.75;67.14
56689;BME280;42565;53.342;-1.534;2023-02-08T07:12:18;100712.54;;;3.78;66.27
56689;BME280;42565;53.342;-1.534;2023-02-08T07:14:45;100713.95;;;3.71;66.30
56689;BME280;42565;53.342;-1.534;2023-02-08T07:17:13;100712.41;;;3.44;66.87
56689;BME280;42565;53.342;-1.534;2023-02-08T07:19:40;100710.99;;;3.74;66.45
56689;BME280;42565;53.342;-1.534;2023-02-08T07:22:07;100711.89;;;3.76;65.72
56689;BME280;42565;53.342;-1.534;2023-02-08T07:24:35;100726.74;;;3.22;66.40
56689;BME280;42565;53.342;-1.534;2023-02-08T07:27:04;100724.64;;;3.30;66.62
56689;BME280;42565;53.342;-1.534;2023-02-08T07:29:33;100719.98;;;3.01;66.57
56689;BME280;42565;53.342;-1.534;2023-02-08T07:32:00;100717.73;;;3.21;65.22
56689;BME280;42565;53.342;-1.534;2023-02-08T07:34:29;100718.78;;;3.43;64.96
56689;BME280;42565;53.342;-1.534;2023-02-08T07:36:56;100712.59;;;3.91;63.55
56689;BME280;42565;53.342;-1.534;2023-02-08T07:39:24;100702.68;;;3.64;63.83
56689;BME280;42565;53.342;-1.534;2023-02-08T07:41:52;100700.65;;;4.18;62.81
56689;BME280;42565;53.342;-1.534;2023-02-08T07:44:19;100702.75;;;3.71;63.01
56689;BME280;42565;53.342;-1.534;2023-02-08T07:46:46;100709.80;;;3.84;62.75
56689;BME280;42565;53.342;-1.534;2023-02-08T07:49:14;100712.16;;;4.16;62.24
56689;BME280;42565;53.342;-1.534;2023-02-08T07:51:41;100719.43;;;4.48;60.59
56689;BME280;42565;53.342;-1.534;2023-02-08T07:54:08;100719.97;;;5.46;57.63
56689;BME280;42565;53.342;-1.534;2023-02-08T07:56:35;100716.33;;;5.76;55.46
56689;BME280;42565;53.342;-1.534;2023-02-08T07:59:02;100722.56;;;7.32;51.89
56689;BME280;42565;53.342;-1.534;2023-02-08T08:01:29;100712.50;;;7.40;50.09
56689;BME280;42565;53.342;-1.534;2023-02-08T08:03:56;100705.23;;;9.02;46.25
56689;BME280;42565;53.342;-1.534;2023-02-08T08:06:24;100700.63;;;8.78;44.83
56689;BME280;42565;53.342;-1.534;2023-02-08T08:08:51;100699.70;;;8.63;45.23
56689;BME280;42565;53.342;-1.534;2023-02-08T08:11:19;100707.01;;;8.43;46.03
56689;BME280;42565;53.342;-1.534;2023-02-08T08:13:47;100703.20;;;8.33;45.73
56689;BME280;42565;53.342;-1.534;2023-02-08T08:16:14;100696.90;;;8.37;45.80
56689;BME280;42565;53.342;-1.534;2023-02-08T08:18:42;100695.15;;;9.80;43.90
56689;BME280;42565;53.342;-1.534;2023-02-08T08:21:10;100691.82;;;9.38;43.75
56689;BME280;42565;53.342;-1.534;2023-02-08T08:23:42;100680.84;;;9.27;44.09
56689;BME280;42565;53.342;-1.534;2023-02-08T08:26:11;100670.41;;;9.19;44.72
56689;BME280;42565;53.342;-1.534;2023-02-08T08:28:39;100668.03;;;9.33;44.78
56689;BME280;42565;53.342;-1.534;2023-02-08T08:31:10;100659.39;;;8.50;45.42
56689;BME280;42565;53.342;-1.534;2023-02-08T08:33:37;100650.84;;;8.56;45.61
56689;BME280;42565;53.342;-1.534;2023-02-08T08:36:05;100647.54;;;8.96;44.27
56689;BME280;42565;53.342;-1.534;2023-02-08T08:38:32;100648.52;;;8.62;44.05
56689;BME280;42565;53.342;-1.534;2023-02-08T08:40:59;100642.58;;;8.90;43.29
56689;BME280;42565;53.342;-1.534;2023-02-08T08:43:27;100642.15;;;9.37;42.30
56689;BME280;42565;53.342;-1.534;2023-02-08T08:45:54;100635.09;;;9.99;40.76
56689;BME280;42565;53.342;-1.534;2023-02-08T08:48:21;100630.45;;;10.51;39.27
56689;BME280;42565;53.342;-1.534;2023-02-08T08:50:48;100619.22;;;10.80;38.23
56689;BME280;42565;53.342;-1.534;2023-02-08T08:53:16;100614.05;;;10.90;37.36
56689;BME280;42565;53.342;-1.534;2023-02-08T08:55:43;100615.50;;;10.39;37.72
56689;BME280;42565;53.342;-1.534;2023-02-08T08:58:10;100615.02;;;11.01;37.64
56689;BME280;42565;53.342;-1.534;2023-02-08T09:00:37;100616.32;;;9.97;38.05
56689;BME280;42565;53.342;-1.534;2023-02-08T09:03:04;100614.41;;;9.86;39.17
56689;BME280;42565;53.342;-1.534;2023-02-08T09:05:31;100610.68;;;10.35;38.36
56689;BME280;42565;53.342;-1.534;2023-02-08T09:07:58;100606.92;;;11.07;37.27
56689;BME280;42565;53.342;-1.534;2023-02-08T09:10:25;100610.21;;;10.97;36.43
56689;BME280;42565;53.342;-1.534;2023-02-08T09:12:52;100611.57;;;10.24;37.98
56689;BME280;42565;53.342;-1.534;2023-02-08T09:15:20;100612.39;;;9.74;39.34
56689;BME280;42565;53.342;-1.534;2023-02-08T09:17:47;100606.32;;;9.23;39.84
56689;BME280;42565;53.342;-1.534;2023-02-08T09:20:15;100604.78;;;8.83;41.69
56689;BME280;42565;53.342;-1.534;2023-02-08T09:22:42;100598.72;;;8.26;42.67
56689;BME280;42565;53.342;-1.534;2023-02-08T09:25:10;100600.23;;;8.67;41.61
56689;BME280;42565;53.342;-1.534;2023-02-08T09:27:37;100599.43;;;9.06;40.23
56689;BME280;42565;53.342;-1.534;2023-02-08T09:30:04;100601.65;;;9.36;40.56
56689;BME280;42565;53.342;-1.534;2023-02-08T09:32:32;100603.30;;;8.74;42.01
56689;BME280;42565;53.342;-1.534;2023-02-08T09:35:00;100601.37;;;8.74;41.26
56689;BME280;42565;53.342;-1.534;2023-02-08T09:37:27;100599.31;;;9.37;40.62
56689;BME280;42565;53.342;-1.534;2023-02-08T09:39:54;100599.80;;;9.27;40.45
56689;BME280;42565;53.342;-1.534;2023-02-08T09:42:28;100593.49;;;9.26;39.83
56689;BME280;42565;53.342;-1.534;2023-02-08T09:45:16;100583.11;;;9.09;40.33
56689;BME280;42565;53.342;-1.534;2023-02-08T09:47:51;100585.81;;;9.58;38.53
56689;BME280;42565;53.342;-1.534;2023-02-08T09:50:24;100583.30;;;10.93;37.71
56689;BME280;42565;53.342;-1.534;2023-02-08T09:52:58;100584.39;;;10.86;36.09
56689;BME280;42565;53.342;-1.534;2023-02-08T09:55:31;100578.49;;;11.21;35.37
56689;BME280;42565;53.342;-1.534;2023-02-08T09:58:03;100575.95;;;11.44;35.49
56689;BME280;42565;53.342;-1.534;2023-02-08T10:00:37;100575.16;;;10.32;35.60
56689;BME280;42565;53.342;-1.534;2023-02-08T10:03:07;100571.75;;;11.16;36.00
56689;BME280;42565;53.342;-1.534;2023-02-08T10:05:44;100575.98;;;10.93;34.08
56689;BME280;42565;53.342;-1.534;2023-02-08T10:08:11;100576.79;;;11.95;34.59
56689;BME280;42565;53.342;-1.534;2023-02-08T10:10:44;100580.99;;;11.91;33.64
56689;BME280;42565;53.342;-1.534;2023-02-08T10:13:27;100580.66;;;11.47;32.81
56689;BME280;42565;53.342;-1.534;2023-02-08T10:16:06;100576.90;;;11.66;32.89
56689;BME280;42565;53.342;-1.534;2023-02-08T10:18:43;100574.44;;;12.59;32.16
56689;BME280;42565;53.342;-1.534;2023-02-08T10:21:25;100571.37;;;13.14;31.32
56689;BME280;42565;53.342;-1.534;2023-02-08T10:24:11;100565.09;;;12.71;31.57
56689;BME280;42565;53.342;-1.534;2023-02-08T10:26:44;100559.87;;;12.11;32.68
56689;BME280;42565;53.342;-1.534;2023-02-08T10:29:32;100555.29;;;12.23;31.73
56689;BME280;42565;53.342;-1.534;2023-02-08T10:32:18;100553.74;;;10.98;32.78
56689;BME280;42565;53.342;-1.534;2023-02-08T10:34:51;100557.22;;;11.37;33.55
56689;BME280;42565;53.342;-1.534;2023-02-08T10:37:26;100559.08;;;11.23;33.41
56689;BME280;42565;53.342;-1.534;2023-02-08T10:39:55;100556.58;;;11.30;33.05
56689;BME280;42565;53.342;-1.534;2023-02-08T10:42:27;100555.64;;;12.36;31.62
56689;BME280;42565;53.342;-1.534;2023-02-08T10:45:03;100559.16;;;11.90;31.19
56689;BME280;42565;53.342;-1.534;2023-02-08T10:47:41;100556.63;;;12.77;30.22
56689;BME280;42565;53.342;-1.534;2023-02-08T10:50:17;100548.38;;;12.88;29.65
56689;BME280;42565;53.342;-1.534;2023-02-08T10:52:47;100535.92;;;12.00;29.96
56689;BME280;42565;53.342;-1.534;2023-02-08T10:55:16;100532.84;;;12.03;30.28
56689;BME280;42565;53.342;-1.534;2023-02-08T10:57:45;100532.56;;;11.57;31.00
56689;BME280;42565;53.342;-1.534;2023-02-08T11:00:18;100529.60;;;11.50;31.00
56689;BME280;42565;53.342;-1.534;2023-02-08T11:02:46;100533.47;;;12.23;29.67
56689;BME280;42565;53.342;-1.534;2023-02-08T11:05:18;100533.03;;;12.53;30.64
56689;BME280;42565;53.342;-1.534;2023-02-08T11:07:45;100531.08;;;12.25;29.89
56689;BME280;42565;53.342;-1.534;2023-02-08T11:10:23;100531.91;;;12.26;29.58
56689;BME280;42565;53.342;-1.534;2023-02-08T11:12:55;100528.44;;;11.90;30.22
56689;BME280;42565;53.342;-1.534;2023-02-08T11:15:25;100527.12;;;11.47;31.09
56689;BME280;42565;53.342;-1.534;2023-02-08T11:17:56;100522.89;;;10.71;31.93
56689;BME280;42565;53.342;-1.534;2023-02-08T11:20:28;100517.56;;;11.05;32.80
56689;BME280;42565;53.342;-1.534;2023-02-08T11:22:58;100515.59;;;10.87;31.06
56689;BME280;42565;53.342;-1.534;2023-02-08T11:25:33;100505.82;;;10.43;33.09
56689;BME280;42565;53.342;-1.534;2023-02-08T11:28:02;100502.45;;;10.44;32.75
56689;BME280;42565;53.342;-1.534;2023-02-08T11:30:30;100502.41;;;9.73;33.49
56689;BME280;42565;53.342;-1.534;2023-02-08T11:33:17;100493.96;;;10.64;32.35
56689;BME280;42565;53.342;-1.534;2023-02-08T11:35:53;100492.60;;;11.10;31.70
56689;BME280;42565;53.342;-1.534;2023-02-08T11:38:22;100491.70;;;11.48;33.08
56689;BME280;42565;53.342;-1.534;2023-02-08T11:40:49;100481.54;;;11.33;33.79
56689;BME280;42565;53.342;-1.534;2023-02-08T11:43:21;100483.51;;;12.38;32.53
56689;BME280;42565;53.342;-1.534;2023-02-08T11:45:49;100467.18;;;11.50;33.37
56689;BME280;42565;53.342;-1.534;2023-02-08T11:48:22;100461.98;;;11.13;33.10
56689;BME280;42565;53.342;-1.534;2023-02-08T11:50:54;100460.55;;;11.22;32.16
56689;BME280;42565;53.342;-1.534;2023-02-08T11:53:26;100456.09;;;12.28;32.77
56689;BME280;42565;53.342;-1.534;2023-02-08T11:56:06;100446.44;;;11.62;31.84
56689;BME280;42565;53.342;-1.534;2023-02-08T11:58:40;100441.53;;;11.92;31.03
56689;BME280;42565;53.342;-1.534;2023-02-08T12:01:17;100436.95;;;11.99;31.92
56689;BME280;42565;53.342;-1.534;2023-02-08T12:03:45;100432.74;;;10.88;32.83
56689;BME280;42565;53.342;-1.534;2023-02-08T12:06:27;100433.10;;;10.58;33.89
56689;BME280;42565;53.342;-1.534;2023-02-08T12:09:02;100428.09;;;10.59;33.72
56689;BME280;42565;53.342;-1.534;2023-02-08T12:11:39;100427.58;;;10.95;32.40
56689;BME280;42565;53.342;-1.534;2023-02-08T12:14:21;100427.46;;;10.94;32.77
56689;BME280;42565;53.342;-1.534;2023-02-08T12:17:05;100422.22;;;9.78;34.69
56689;BME280;42565;53.342;-1.534;2023-02-08T12:19:54;100420.47;;;9.90;33.64
56689;BME280;42565;53.342;-1.534;2023-02-08T12:22:28;100418.39;;;9.91;33.79
56689;BME280;42565;53.342;-1.534;2023-02-08T12:25:06;100410.62;;;10.07;34.76
56689;BME280;42565;53.342;-1.534;2023-02-08T12:27:42;100398.89;;;10.29;33.05
56689;BME280;42565;53.342;-1.534;2023-02-08T12:30:20;100398.87;;;8.67;34.70
56689;BME280;42565;53.342;-1.534;2023-02-08T12:33:02;100395.71;;;9.12;34.54
56689;BME280;42565;53.342;-1.534;2023-02-08T12:35:51;100395.40;;;9.63;34.44
56689;BME280;42565;53.342;-1.534;2023-02-08T12:38:30;100393.15;;;9.10;34.59
56689;BME280;42565;53.342;-1.534;2023-02-08T12:41:06;100386.06;;;8.90;34.10
56689;BME280;42565;53.342;-1.534;2023-02-08T12:43:44;100381.01;;;8.14;35.52
56689;BME280;42565;53.342;-1.534;2023-02-08T12:46:21;100372.18;;;8.57;34.60
56689;BME280;42565;53.342;-1.534;2023-02-08T12:49:04;100375.40;;;8.74;34.70
56689;BME280;42565;53.342;-1.534;2023-02-08T12:51:45;100354.09;;;7.96;35.70
56689;BME280;42565;53.342;-1.534;2023-02-08T12:54:16;100359.54;;;7.37;36.00
56689;BME280;42565;53.342;-1.534;2023-02-08T12:56:50;100364.33;;;8.28;35.74
56689;BME280;42565;53.342;-1.534;2023-02-08T12:59:23;100363.33;;;8.66;35.09
56689;BME280;42565;53.342;-1.534;2023-02-08T13:01:54;100350.29;;;8.61;34.68
56689;BME280;42565;53.342;-1.534;2023-02-08T13:04:26;100359.97;;;8.52;35.01